createdAt,value
2022-08-26T00:02:00.855Z,21.98
2022-08-26T00:04:32.272Z,21.93
2022-08-26T00:07:00.758Z,21.91
2022-08-26T00:09:29.780Z,21.82
2022-08-26T00:12:03.255Z,21.81
2022-08-26T00:14:32.424Z,21.80
2022-08-26T00:16:59.687Z,21.77
2022-08-26T00:19:30.677Z,21.68
2022-08-26T00:22:00.349Z,21.66
2022-08-26T00:24:28.185Z,21.67
2022-08-26T00:26:57.792Z,21.64
2022-08-26T00:29:28.057Z,21.57
2022-08-26T00:32:09.219Z,21.59
2022-08-26T00:34:42.168Z,21.53
2022-08-26T00:37:15.678Z,21.50
2022-08-26T00:39:43.441Z,21.47
2022-08-26T00:42:13.952Z,21.45
2022-08-26T00:44:42.231Z,21.38
2022-08-26T00:47:31.774Z,21.37
2022-08-26T00:50:02.677Z,21.32
2022-08-26T00:52:30.378Z,21.34
2022-08-26T00:55:27.516Z,21.40
2022-08-26T00:58:07.244Z,21.31
2022-08-26T01:00:43.205Z,21.32
2022-08-26T01:03:13.448Z,21.36
2022-08-26T01:05:42.680Z,21.34
2022-08-26T01:08:10.243Z,21.37
2022-08-26T01:10:38.679Z,21.40
2022-08-26T01:13:10.455Z,21.40
2022-08-26T01:15:44.070Z,21.35
2022-08-26T01:18:13.573Z,21.36
2022-08-26T01:21:08.797Z,21.35
2022-08-26T01:23:45.033Z,21.33
2022-08-26T01:26:22.838Z,21.35
2022-08-26T01:28:58.994Z,21.31
2022-08-26T01:31:35.120Z,21.35
2022-08-26T01:34:11.240Z,21.34
2022-08-26T01:36:40.397Z,21.33
2022-08-26T01:39:11.833Z,21.33
2022-08-26T01:41:44.018Z,21.29
2022-08-26T01:44:18.731Z,21.25
2022-08-26T01:46:51.478Z,21.27
2022-08-26T01:49:21.149Z,21.24
2022-08-26T01:51:56.500Z,21.26
2022-08-26T01:54:26.249Z,21.25
2022-08-26T01:56:56.949Z,21.23
2022-08-26T01:59:25.549Z,21.21
2022-08-26T02:01:53.840Z,21.14
2022-08-26T02:04:34.164Z,21.14
2022-08-26T02:07:22.132Z,21.07
2022-08-26T02:09:54.110Z,21.11
2022-08-26T02:12:23.229Z,21.11
2022-08-26T02:14:56.704Z,21.11
2022-08-26T02:17:36.675Z,21.13
2022-08-26T02:20:07.870Z,21.11
2022-08-26T02:22:41.713Z,21.11
2022-08-26T02:25:23.225Z,21.08
2022-08-26T02:27:51.946Z,21.06
2022-08-26T02:30:23.956Z,21.08
2022-08-26T02:33:00.201Z,21.03
2022-08-26T02:35:27.361Z,21.04
2022-08-26T02:37:57.340Z,20.99
2022-08-26T02:40:33.735Z,20.96
2022-08-26T02:43:08.586Z,20.93
2022-08-26T02:45:37.376Z,20.71
2022-08-26T02:48:14.783Z,20.67
2022-08-26T02:50:42.449Z,20.77
2022-08-26T02:53:14.799Z,20.83
2022-08-26T02:55:42.557Z,20.79
2022-08-26T02:58:12.190Z,20.82
2022-08-26T03:00:52.791Z,20.83
2022-08-26T03:03:23.843Z,20.91
2022-08-26T03:05:52.029Z,20.94
2022-08-26T03:08:21.195Z,20.88
2022-08-26T03:10:51.415Z,20.79
2022-08-26T03:13:21.050Z,20.84
2022-08-26T03:15:50.932Z,20.84
2022-08-26T03:18:21.649Z,20.59
2022-08-26T03:20:48.845Z,20.56
2022-08-26T03:23:15.847Z,20.73
2022-08-26T03:25:51.069Z,20.77
2022-08-26T03:28:19.389Z,20.84
2022-08-26T03:30:48.618Z,20.81
2022-08-26T03:33:16.496Z,20.76
2022-08-26T03:35:50.805Z,20.83
2022-08-26T03:38:27.527Z,20.76
2022-08-26T03:40:58.555Z,20.79
2022-08-26T03:43:27.761Z,20.87
2022-08-26T03:45:57.331Z,20.84
2022-08-26T03:48:26.969Z,20.94
2022-08-26T03:50:55.230Z,20.95
2022-08-26T03:53:24.097Z,20.93
2022-08-26T03:55:52.118Z,20.97
2022-08-26T03:58:21.407Z,20.91
2022-08-26T04:00:55.402Z,20.95
2022-08-26T04:03:44.191Z,20.97
2022-08-26T04:06:12.028Z,20.98
2022-08-26T04:08:41.950Z,20.99
2022-08-26T04:11:38.770Z,20.97
2022-08-26T04:14:11.559Z,21.01
2022-08-26T04:16:42.035Z,20.91
2022-08-26T04:19:13.281Z,20.85
2022-08-26T04:21:42.775Z,20.88
2022-08-26T04:24:13.060Z,20.93
2022-08-26T04:26:43.846Z,20.98
2022-08-26T04:29:20.702Z,20.99
2022-08-26T04:31:50.435Z,20.93
2022-08-26T04:34:33.496Z,20.81
2022-08-26T04:37:02.930Z,20.89
2022-08-26T04:39:33.469Z,20.89
2022-08-26T04:42:02.128Z,20.97
2022-08-26T04:44:30.590Z,20.84
2022-08-26T04:47:00.938Z,20.73
2022-08-26T04:49:35.415Z,20.87
2022-08-26T04:52:07.780Z,20.78
2022-08-26T04:54:37.389Z,20.67
2022-08-26T04:57:05.162Z,20.68
2022-08-26T04:59:38.459Z,20.83
2022-08-26T05:02:10.337Z,20.97
2022-08-26T05:04:41.058Z,21.02
2022-08-26T05:07:11.400Z,21.13
2022-08-26T05:09:42.910Z,21.20
2022-08-26T05:12:13.258Z,21.23
2022-08-26T05:14:42.907Z,21.32
2022-08-26T05:17:10.484Z,21.39
2022-08-26T05:19:43.203Z,21.44
2022-08-26T05:22:13.122Z,21.47
2022-08-26T05:24:43.690Z,21.49
2022-08-26T05:27:13.713Z,21.49
2022-08-26T05:29:41.598Z,21.48
2022-08-26T05:32:11.285Z,21.44
2022-08-26T05:34:43.146Z,21.23
2022-08-26T05:37:11.405Z,21.35
2022-08-26T05:39:43.528Z,21.39
2022-08-26T05:42:22.850Z,21.27
2022-08-26T05:44:55.916Z,21.35
2022-08-26T05:47:27.469Z,21.16
2022-08-26T05:49:59.651Z,21.18
2022-08-26T05:52:27.790Z,21.36
2022-08-26T05:54:57.298Z,21.41
2022-08-26T05:57:24.377Z,21.47
2022-08-26T06:02:21.427Z,21.55
2022-08-26T06:04:50.950Z,21.66
2022-08-26T06:07:42.659Z,21.69
2022-08-26T06:10:32.779Z,21.71
2022-08-26T06:13:09.113Z,21.62
2022-08-26T06:15:46.937Z,21.75
2022-08-26T06:18:18.430Z,21.84
2022-08-26T06:20:57.085Z,21.87
2022-08-26T06:23:47.230Z,21.90
2022-08-26T06:26:16.930Z,21.88
2022-08-26T06:28:46.128Z,21.86
2022-08-26T06:31:16.806Z,22.01
2022-08-26T06:33:54.387Z,22.17
2022-08-26T06:36:26.880Z,22.57
2022-08-26T06:38:55.897Z,22.85
2022-08-26T06:41:25.177Z,23.02
2022-08-26T06:43:54.087Z,23.15
2022-08-26T06:46:22.247Z,23.04
2022-08-26T06:48:52.354Z,22.88
2022-08-26T06:51:23.665Z,22.87
2022-08-26T06:53:53.847Z,22.88
2022-08-26T06:56:27.871Z,22.93
2022-08-26T06:58:56.829Z,23.22
2022-08-26T07:01:32.715Z,23.45
2022-08-26T07:04:03.714Z,23.68
2022-08-26T07:06:43.439Z,23.89
2022-08-26T07:09:13.923Z,23.95
2022-08-26T07:11:42.311Z,24.20
2022-08-26T07:14:10.056Z,24.54
2022-08-26T07:16:42.271Z,24.85
2022-08-26T07:19:10.656Z,25.05
2022-08-26T07:21:42.925Z,25.18
2022-08-26T07:24:11.657Z,25.26
2022-08-26T07:26:43.184Z,25.23
2022-08-26T07:29:17.282Z,25.67
2022-08-26T07:31:47.710Z,26.07
2022-08-26T07:34:17.355Z,26.18
2022-08-26T07:36:47.458Z,26.20
2022-08-26T07:39:17.372Z,26.35
2022-08-26T07:41:47.329Z,26.65
2022-08-26T07:44:15.880Z,26.57
2022-08-26T07:46:44.295Z,26.71
2022-08-26T07:49:22.047Z,26.68
2022-08-26T07:51:53.156Z,26.84
2022-08-26T07:54:26.739Z,27.06
2022-08-26T07:56:57.737Z,27.23
2022-08-26T07:59:27.291Z,27.45
2022-08-26T08:01:57.332Z,27.28
2022-08-26T08:04:27.047Z,27.42
2022-08-26T08:06:56.534Z,27.46
2022-08-26T08:09:26.750Z,27.53
2022-08-26T08:11:56.559Z,27.52
2022-08-26T08:14:23.608Z,27.81
2022-08-26T08:16:54.626Z,28.14
2022-08-26T08:19:28.448Z,28.43
2022-08-26T08:22:06.872Z,28.74
2022-08-26T08:24:49.874Z,29.17
2022-08-26T08:27:24.329Z,29.13
2022-08-26T08:29:57.639Z,28.95
2022-08-26T08:32:36.338Z,28.87
2022-08-26T08:35:11.730Z,28.80
2022-08-26T08:37:44.175Z,28.53
2022-08-26T08:40:20.716Z,28.41
2022-08-26T08:45:53.111Z,28.68
2022-08-26T08:48:33.082Z,29.16
2022-08-26T08:51:20.589Z,29.27
2022-08-26T08:53:54.764Z,29.56
2022-08-26T08:56:41.648Z,29.83
2022-08-26T08:59:21.665Z,29.78
2022-08-26T09:02:23.055Z,30.14
2022-08-26T09:05:15.360Z,29.51
2022-08-26T09:08:00.764Z,29.77
2022-08-26T09:10:32.447Z,29.90
2022-08-26T09:13:01.082Z,29.29
2022-08-26T09:16:10.899Z,29.11
2022-08-26T09:19:15.523Z,29.58
2022-08-26T09:21:46.761Z,29.76
2022-08-26T09:24:28.951Z,29.65
2022-08-26T09:26:59.458Z,29.86
2022-08-26T09:29:34.499Z,29.72
2022-08-26T09:32:25.982Z,29.76
2022-08-26T09:35:31.881Z,29.95
2022-08-26T09:37:59.711Z,30.08
2022-08-26T09:40:37.332Z,30.35
2022-08-26T09:43:23.638Z,30.34
2022-08-26T09:46:28.794Z,30.64
2022-08-26T09:48:57.085Z,30.33
2022-08-26T09:51:32.611Z,30.23
2022-08-26T09:54:05.636Z,30.63
2022-08-26T09:56:38.140Z,30.43
2022-08-26T09:59:12.872Z,30.57
2022-08-26T10:01:44.757Z,30.33
2022-08-26T10:04:15.933Z,30.44
2022-08-26T10:07:07.015Z,30.89
2022-08-26T10:09:42.660Z,30.36
2022-08-26T10:12:23.115Z,30.14
2022-08-26T10:15:09.590Z,29.62
2022-08-26T10:17:42.638Z,30.18
2022-08-26T10:20:33.731Z,30.57
2022-08-26T10:23:21.693Z,30.47
2022-08-26T10:26:03.650Z,30.00
2022-08-26T10:29:06.450Z,30.08
2022-08-26T10:31:43.703Z,30.04
2022-08-26T10:34:14.040Z,30.13
2022-08-26T10:37:15.934Z,30.05
2022-08-26T10:40:00.212Z,29.92
2022-08-26T10:43:30.852Z,30.27
2022-08-26T10:46:07.673Z,31.12
2022-08-26T10:48:50.321Z,31.38
2022-08-26T10:51:37.736Z,30.92
2022-08-26T10:54:23.753Z,30.60
2022-08-26T10:56:59.321Z,31.02
2022-08-26T10:59:38.041Z,31.30
2022-08-26T11:02:13.413Z,31.03
2022-08-26T11:05:16.331Z,30.92
2022-08-26T11:07:56.360Z,31.03
2022-08-26T11:10:24.421Z,31.51
2022-08-26T11:13:07.826Z,31.41
2022-08-26T11:15:41.530Z,31.51
2022-08-26T11:18:12.520Z,31.24
2022-08-26T11:20:50.705Z,31.61
2022-08-26T11:23:33.600Z,31.99
2022-08-26T11:26:08.702Z,32.33
2022-08-26T11:28:52.300Z,32.36
2022-08-26T11:31:27.061Z,32.23
2022-08-26T11:34:10.991Z,32.52
2022-08-26T11:36:56.889Z,32.25
2022-08-26T11:39:55.464Z,31.92
2022-08-26T11:42:51.992Z,31.55
2022-08-26T11:45:44.420Z,31.35
2022-08-26T11:48:40.695Z,31.35
2022-08-26T11:51:20.602Z,31.62
2022-08-26T11:53:50.909Z,32.13
2022-08-26T11:56:33.269Z,32.49
2022-08-26T11:59:09.918Z,32.89
2022-08-26T12:01:44.027Z,33.33
2022-08-26T12:04:34.401Z,33.32
2022-08-26T12:07:05.026Z,33.18
2022-08-26T12:09:52.704Z,32.47
2022-08-26T12:12:37.716Z,32.71
2022-08-26T12:15:17.002Z,33.17
2022-08-26T12:17:50.486Z,33.66
2022-08-26T12:20:54.199Z,34.27
2022-08-26T12:23:22.535Z,34.59
2022-08-26T12:25:54.681Z,34.09
2022-08-26T12:28:32.745Z,33.53
2022-08-26T12:31:03.020Z,33.11
2022-08-26T12:33:34.229Z,33.33
2022-08-26T12:36:07.042Z,33.38
2022-08-26T12:38:37.668Z,33.44
2022-08-26T12:41:04.841Z,33.72
2022-08-26T12:43:47.462Z,33.57
2022-08-26T12:46:27.166Z,33.74
2022-08-26T12:49:02.422Z,33.72
2022-08-26T12:51:32.240Z,33.11
2022-08-26T12:54:02.259Z,32.88
2022-08-26T12:56:39.820Z,33.20
2022-08-26T12:59:25.446Z,33.44
2022-08-26T13:01:54.647Z,33.73
2022-08-26T13:04:43.381Z,33.17
2022-08-26T13:07:27.357Z,32.96
2022-08-26T13:09:58.168Z,33.16
2022-08-26T13:12:34.680Z,32.93
2022-08-26T13:15:06.300Z,32.99
2022-08-26T13:17:37.860Z,33.01
2022-08-26T13:20:08.385Z,33.12
2022-08-26T13:22:35.607Z,33.27
2022-08-26T13:25:07.977Z,33.51
2022-08-26T13:27:37.570Z,33.70
2022-08-26T13:30:05.098Z,33.94
2022-08-26T13:32:35.419Z,33.72
2022-08-26T13:35:05.721Z,33.35
2022-08-26T13:37:34.893Z,33.29
2022-08-26T13:40:12.457Z,33.25
2022-08-26T13:42:50.101Z,33.51
2022-08-26T13:45:18.724Z,33.55
2022-08-26T13:47:47.246Z,33.35
2022-08-26T13:50:14.986Z,33.56
2022-08-26T13:52:44.043Z,33.47
2022-08-26T13:55:11.251Z,33.21
2022-08-26T13:57:39.106Z,33.67
2022-08-26T14:00:11.125Z,33.75
2022-08-26T14:02:43.317Z,33.78
2022-08-26T14:05:12.925Z,33.92
2022-08-26T14:07:41.078Z,33.84
2022-08-26T14:10:08.571Z,33.90
2022-08-26T14:12:38.122Z,34.33
2022-08-26T14:15:09.131Z,34.15
2022-08-26T14:17:37.777Z,34.10
2022-08-26T14:20:18.626Z,34.12
2022-08-26T14:23:03.437Z,33.79
2022-08-26T14:25:33.846Z,33.72
2022-08-26T14:28:02.013Z,33.86
2022-08-26T14:30:30.991Z,33.84
2022-08-26T14:33:03.639Z,33.55
2022-08-26T14:35:31.921Z,33.27
2022-08-26T14:38:01.412Z,33.37
2022-08-26T14:40:38.912Z,33.23
2022-08-26T14:43:09.661Z,33.29
2022-08-26T14:45:43.752Z,33.51
2022-08-26T14:48:14.476Z,33.48
2022-08-26T14:50:41.587Z,33.11
2022-08-26T14:53:28.089Z,32.88
2022-08-26T14:55:56.441Z,32.78
2022-08-26T14:58:23.423Z,32.90
2022-08-26T15:00:52.027Z,32.81
2022-08-26T15:05:52.697Z,32.70
2022-08-26T15:08:23.188Z,32.91
2022-08-26T15:10:51.858Z,32.55
2022-08-26T15:13:23.947Z,32.51
2022-08-26T15:16:00.978Z,32.64
2022-08-26T15:18:40.622Z,32.68
2022-08-26T15:21:17.997Z,32.75
2022-08-26T15:23:48.122Z,32.82
2022-08-26T15:26:17.146Z,32.93
2022-08-26T15:28:56.661Z,33.04
2022-08-26T15:31:32.827Z,32.67
2022-08-26T15:34:03.259Z,32.60
2022-08-26T15:36:34.061Z,32.44
2022-08-26T15:39:02.573Z,32.45
2022-08-26T15:41:30.146Z,32.33
2022-08-26T15:44:07.246Z,32.18
2022-08-26T15:46:38.506Z,32.18
2022-08-26T15:49:07.449Z,32.20
2022-08-26T15:51:45.172Z,32.24
2022-08-26T15:54:17.170Z,32.07
2022-08-26T15:56:47.958Z,32.15
2022-08-26T15:59:18.125Z,32.16
2022-08-26T16:01:55.619Z,32.00
2022-08-26T16:04:24.166Z,31.84
2022-08-26T16:06:53.319Z,31.96
2022-08-26T16:09:27.821Z,31.97
2022-08-26T16:11:57.162Z,31.83
2022-08-26T16:14:27.830Z,31.65
2022-08-26T16:16:56.757Z,31.42
2022-08-26T16:19:27.258Z,31.54
2022-08-26T16:21:55.665Z,31.46
2022-08-26T16:24:28.368Z,31.32
2022-08-26T16:27:00.119Z,31.26
2022-08-26T16:29:28.728Z,31.22
2022-08-26T16:31:56.715Z,30.95
2022-08-26T16:34:28.121Z,31.01
2022-08-26T16:36:56.133Z,31.02
2022-08-26T16:39:23.559Z,31.04
2022-08-26T16:41:53.245Z,30.89
2022-08-26T16:44:22.400Z,30.85
2022-08-26T16:46:49.783Z,30.79
2022-08-26T16:49:20.745Z,30.71
2022-08-26T16:51:47.725Z,30.71
2022-08-26T16:54:17.673Z,30.54
2022-08-26T16:56:45.955Z,30.48
2022-08-26T16:59:13.684Z,30.49
2022-08-26T17:01:44.839Z,30.51
2022-08-26T17:04:12.849Z,30.54
2022-08-26T17:06:44.462Z,30.52
2022-08-26T17:09:11.836Z,30.36
2022-08-26T17:11:43.178Z,30.26
2022-08-26T17:14:11.679Z,30.28
2022-08-26T17:16:41.687Z,30.18
2022-08-26T17:19:13.172Z,30.11
2022-08-26T17:21:43.316Z,30.18
2022-08-26T17:24:11.677Z,30.15
2022-08-26T17:26:48.368Z,30.05
2022-08-26T17:29:23.750Z,29.84
2022-08-26T17:31:53.557Z,29.78
2022-08-26T17:34:22.745Z,29.78
2022-08-26T17:36:52.359Z,29.68
2022-08-26T17:39:29.918Z,29.65
2022-08-26T17:41:59.002Z,29.62
2022-08-26T17:44:26.892Z,29.67
2022-08-26T17:46:58.121Z,29.64
2022-08-26T17:49:28.259Z,29.67
2022-08-26T17:51:58.953Z,29.60
2022-08-26T17:54:27.699Z,29.55
2022-08-26T17:56:57.843Z,29.46
2022-08-26T17:59:33.587Z,29.44
2022-08-26T18:02:03.451Z,29.37
2022-08-26T18:04:33.872Z,29.27
2022-08-26T18:07:02.451Z,29.20
2022-08-26T18:09:32.626Z,29.08
2022-08-26T18:12:03.161Z,28.97
2022-08-26T18:14:33.350Z,28.92
2022-08-26T18:17:03.531Z,28.86
2022-08-26T18:19:32.755Z,28.74
2022-08-26T18:22:02.352Z,28.61
2022-08-26T18:24:33.000Z,28.49
2022-08-26T18:27:02.817Z,28.40
2022-08-26T18:29:34.358Z,28.31
2022-08-26T18:32:03.478Z,28.20
2022-08-26T18:34:31.531Z,28.17
2022-08-26T18:37:00.802Z,28.07
2022-08-26T18:39:30.844Z,27.99
2022-08-26T18:42:01.784Z,27.95
2022-08-26T18:44:33.329Z,27.87
2022-08-26T18:47:02.000Z,27.81
2022-08-26T18:49:33.728Z,27.72
2022-08-26T18:52:02.661Z,27.61
2022-08-26T18:54:32.777Z,27.53
2022-08-26T18:57:02.989Z,27.47
2022-08-26T18:59:33.001Z,27.40
2022-08-26T19:02:03.239Z,27.35
2022-08-26T19:04:35.543Z,27.25
2022-08-26T19:07:14.021Z,27.14
2022-08-26T19:09:47.931Z,26.99
2022-08-26T19:12:26.865Z,26.94
2022-08-26T19:14:57.536Z,26.87
2022-08-26T19:17:27.051Z,26.79
2022-08-26T19:19:57.577Z,26.72
2022-08-26T19:22:29.951Z,26.66
2022-08-26T19:25:02.023Z,26.63
2022-08-26T19:27:38.536Z,26.54
2022-08-26T19:30:16.429Z,26.50
2022-08-26T19:32:44.841Z,26.46
2022-08-26T19:35:15.008Z,26.40
2022-08-26T19:37:44.613Z,26.34
2022-08-26T19:40:13.592Z,26.30
2022-08-26T19:42:43.290Z,26.25
2022-08-26T19:45:20.199Z,26.20
2022-08-26T19:47:54.571Z,26.13
2022-08-26T19:50:23.220Z,26.06
2022-08-26T19:52:53.312Z,26.01
2022-08-26T19:55:22.849Z,25.92
2022-08-26T19:57:53.014Z,25.91
2022-08-26T20:00:27.571Z,25.89
2022-08-26T20:02:58.652Z,25.81
2022-08-26T20:05:27.301Z,25.82
2022-08-26T20:07:57.841Z,25.75
2022-08-26T20:10:26.521Z,25.69
2022-08-26T20:12:56.542Z,25.71
2022-08-26T20:15:36.540Z,25.66
2022-08-26T20:18:24.942Z,25.61
2022-08-26T20:21:12.548Z,25.53
2022-08-26T20:23:42.781Z,25.35
2022-08-26T20:26:11.307Z,25.34
2022-08-26T20:28:41.872Z,25.30
2022-08-26T20:31:12.504Z,25.29
2022-08-26T20:33:46.557Z,25.23
2022-08-26T20:36:15.722Z,25.19
2022-08-26T20:38:45.323Z,25.13
2022-08-26T20:41:14.152Z,25.13
2022-08-26T20:43:50.592Z,25.05
2022-08-26T20:46:20.305Z,25.03
2022-08-26T20:48:51.951Z,24.97
2022-08-26T20:51:21.846Z,24.94
2022-08-26T20:53:51.500Z,24.92
2022-08-26T20:56:27.601Z,24.86
2022-08-26T20:58:59.051Z,24.74
2022-08-26T21:01:30.880Z,24.78
2022-08-26T21:04:01.567Z,24.70
2022-08-26T21:06:31.543Z,24.68
2022-08-26T21:09:01.599Z,24.67
2022-08-26T21:11:31.608Z,24.59
2022-08-26T21:14:07.135Z,24.53
2022-08-26T21:16:45.749Z,24.50
2022-08-26T21:19:18.075Z,24.51
2022-08-26T21:21:48.639Z,24.46
2022-08-26T21:24:18.695Z,24.45
2022-08-26T21:26:48.152Z,24.38
2022-08-26T21:29:17.355Z,24.32
2022-08-26T21:31:48.382Z,24.27
2022-08-26T21:34:21.255Z,24.21
2022-08-26T21:36:53.099Z,24.16
2022-08-26T21:39:21.524Z,24.14
2022-08-26T21:41:50.042Z,24.15
2022-08-26T21:44:21.617Z,24.12
2022-08-26T21:46:51.487Z,24.08
2022-08-26T21:49:20.405Z,24.05
2022-08-26T21:51:48.931Z,24.04
2022-08-26T21:54:18.235Z,24.04
2022-08-26T21:56:47.826Z,23.97
2022-08-26T21:59:21.701Z,23.94
2022-08-26T22:01:52.137Z,23.89
2022-08-26T22:04:23.151Z,23.79
2022-08-26T22:06:56.474Z,23.73
2022-08-26T22:09:27.376Z,23.68
2022-08-26T22:11:57.647Z,23.62
2022-08-26T22:14:30.487Z,23.62
2022-08-26T22:17:02.148Z,23.66
2022-08-26T22:19:32.659Z,23.65
2022-08-26T22:22:03.348Z,23.62
2022-08-26T22:24:33.280Z,23.57
2022-08-26T22:27:03.485Z,23.56
2022-08-26T22:29:32.668Z,23.50
2022-08-26T22:32:02.220Z,23.48
2022-08-26T22:34:31.741Z,23.47
2022-08-26T22:37:02.109Z,23.40
2022-08-26T22:39:34.280Z,23.39
2022-08-26T22:42:03.896Z,23.34
2022-08-26T22:44:32.710Z,23.30
2022-08-26T22:47:01.845Z,23.23
2022-08-26T22:49:31.247Z,23.11
2022-08-26T22:52:02.049Z,23.01
2022-08-26T22:54:29.165Z,23.02
2022-08-26T22:56:56.245Z,23.01
2022-08-26T22:59:24.728Z,23.03
2022-08-26T23:01:51.908Z,23.04
2022-08-26T23:04:21.723Z,23.04
2022-08-26T23:06:53.333Z,23.00
2022-08-26T23:09:21.765Z,22.95
2022-08-26T23:11:53.565Z,22.93
2022-08-26T23:14:20.700Z,22.93
2022-08-26T23:16:50.426Z,22.93
2022-08-26T23:19:22.131Z,22.89
2022-08-26T23:21:51.775Z,22.88
2022-08-26T23:24:19.494Z,22.81
2022-08-26T23:26:50.501Z,22.74
2022-08-26T23:29:22.268Z,22.68
2022-08-26T23:31:50.681Z,22.67
2022-08-26T23:34:40.694Z,22.67
2022-08-26T23:37:14.532Z,22.65
2022-08-26T23:39:44.371Z,22.51
2022-08-26T23:42:13.820Z,22.38
2022-08-26T23:44:42.695Z,22.39
2022-08-26T23:47:13.616Z,22.40
2022-08-26T23:49:44.561Z,22.35
2022-08-26T23:52:32.029Z,22.32
2022-08-26T23:54:59.578Z,22.33
2022-08-26T23:57:27.803Z,22.32
2022-08-26T23:59:57.323Z,22.30
